Strona główna
METAR-TAF:

METAR-TAF

Lotnisko :

Port lotniczy Nakhon Ratchasima

Nakhon Ratchasima, Tajlandia

Szerokość geograficzna: 14-56-58N, Długość geograficzna: 102-18-45E, wysokość: 233 m

Aktualna obserwacja pogody

Raport powstał 1 godzina i 23 minut temu, godzina 07:00 UTC
Wiatr 13 kt od północny wschód, zmienny między północno-północny zachód i wschód
Temperatura 32°C
Wilgotność 36%
Ciśnienie 1018 hPa
Widzialność 10 km lub więcej
Mało chmury na wysokości 3500 ft

METAR: VTUQ 220700Z 05013KT 340V090 9999 FEW035 32/15 Q1018 NOSIG

czas: 15:23 (08:23 UTC)

Prognoza

Raport powstał 3 godziny i 23 minut temu, godzina 05:00 UTC
Prognoza ważna od 22 godzina 06 UTC do 23 godzina 06 UTC
Wiatr 12 kt od północny wschód
Widzialność 10 km lub więcej
Brak chmur poniżej 1500 m i brak chmur cumulonimbus

TAF: VTUQ 220500Z 2206/2306 04012KT CAVOK

Obserwacja i prognoza pogody dla ponad 4000 lotnisk (raport METAR i TAF).

Dostępne stacje oznaczono żółtymi i czerwonymi punktami na mapie.

Najedź kursorem aby zobaczyć nazwę stacji.

Kliknij aby zobaczyć obserwacje i prognozy pogody.

Aby zmienić mapę: kliknij na zielony przycisk z czarnym krzyżykiem, aby powiększyć; na zielony przycisk z myślnikiem, aby pomniejszyć; na zielone strzałki, aby przejść do map sąsiednich.


METAR-TAF: